| Date | Time | Temp. (oF) | Dew Point (oF) | Rel. Hum. (%) | Press. (in.) | Wind Dir. | Wind Speed (mph) | Hourly Rainfall (in.) |
|
|---|---|---|---|---|---|---|---|---|---|
| 1 | 10/05 | 00:00 | 49 | 45 | 87 | 30.13 | NE | 0 | 0.00 |
| 2 | 10/04 | 23:00 | 49 | 45 | 87 | 30.14 | E | 0 | 0.00 |
| 3 | 10/04 | 22:00 | 49 | 44 | 85 | 30.15 | ENE | 0 | 0.00 |
| 4 | 10/04 | 21:00 | 51 | 45 | 82 | 30.15 | NNE | 0 | 0.00 |
| 5 | 10/04 | 20:00 | 52 | 45 | 78 | 30.14 | SE | 0 | 0.00 |
| 6 | 10/04 | 19:00 | 54 | 44 | 70 | 30.13 | E | 0 | 0.00 |
| 7 | 10/04 | 18:00 | 56 | 45 | 67 | 30.13 | ESE | 3 | 0.00 |
| 8 | 10/04 | 17:00 | 59 | 47 | 65 | 30.13 | ESE | 8 | 0.00 |
| 9 | 10/04 | 16:00 | 56 | 45 | 69 | 30.15 | ESE | 9 | 0.00 |
| 10 | 10/04 | 15:00 | 56 | 45 | 68 | 30.15 | ENE | 5 | 0.00 |
| 11 | 10/04 | 14:00 | 55 | 45 | 71 | 30.18 | SE | 13 | 0.00 |
| 12 | 10/04 | 13:00 | 55 | 45 | 71 | 30.19 | SE | 9 | 0.00 |
| 13 | 10/04 | 12:00 | 55 | 47 | 75 | 30.20 | SE | 10 | 0.00 |
| 14 | 10/04 | 11:00 | 53 | 45 | 75 | 30.20 | ENE | 8 | 0.00 |
| 15 | 10/04 | 10:00 | 52 | 45 | 78 | 30.20 | SSE | 7 | 0.00 |
| 16 | 10/04 | 09:00 | 52 | 46 | 82 | 30.20 | SE | 6 | 0.00 |
| 17 | 10/04 | 08:00 | 51 | 46 | 83 | 30.21 | ESE | 5 | 0.00 |
| 18 | 10/04 | 07:00 | 50 | 45 | 84 | 30.20 | ESE | 4 | 0.00 |
| 19 | 10/04 | 06:00 | 50 | 45 | 84 | 30.19 | ESE | 4 | 0.00 |
| 20 | 10/04 | 05:00 | 50 | 45 | 85 | 30.18 | SE | 4 | 0.00 |
| 21 | 10/04 | 04:00 | 50 | 45 | 85 | 30.17 | NE | 4 | 0.00 |
| 22 | 10/04 | 03:00 | 50 | 45 | 86 | 30.18 | ENE | 4 | 0.00 |
| 23 | 10/04 | 02:00 | 49 | 44 | 86 | 30.18 | NE | 5 | 0.00 |
| 24 | 10/04 | 01:00 | 49 | 45 | 87 | 30.19 | ESE | 6 | 0.00 |